Aviation Digital Data Service (ADDS)

Output produced by METARs form (0820 UTC 18 February 2019)
found at http://www.aviationweather.gov/metar/data/
 
METAR text: ZGHA 180800Z 30004MPS 1800 -RA BR BKN004 OVC050 02/02 Q1019 BECMG TL0950 3000 BKN005 OVC050
Conditions at: ZGHA (HUANGHUA/CHANGSH, CN) observed 0800 UTC 18 February 2019
Temperature: 2.0°C (36°F)
Dewpoint: 2.0°C (36°F) [RH = 100%]
Pressure (altimeter): 30.09 inches Hg (1019.0 mb)
Winds: from the WNW (300 degrees) at 9 MPH (8 knots; 4.1 m/s)
Visibility: 1.12 miles (1.80 km)
Ceiling: 400 feet AGL
Clouds: broken clouds at 400 feet AGL
overcast cloud deck at 5000 feet AGL
Weather: -RA BR  (light rain, mist)

METAR text: ZGHA 180700Z 33004MPS 300V360 1600 -RA BR SCT003 BKN004 OVC050 02/02 Q1019 BECMG TL0800 SCT004 BKN006 OVC050
Conditions at: ZGHA (HUANGHUA/CHANGSH, CN) observed 0700 UTC 18 February 2019
Temperature: 2.0°C (36°F)
Dewpoint: 2.0°C (36°F) [RH = 100%]
Pressure (altimeter): 30.09 inches Hg (1019.0 mb)
Winds: from the NNW (330 degrees) at 9 MPH (8 knots; 4.1 m/s)
Visibility: 0.99 miles (1.59 km)
Ceiling: 400 feet AGL
Clouds: scattered clouds at 300 feet AGL
broken clouds at 400 feet AGL
overcast cloud deck at 5000 feet AGL
Weather: -RA BR  (light rain, mist)

METAR text: ZGHA 180600Z 32004MPS 2500 -RA BR SCT005 BKN007 OVC050 02/02 Q1020 NOSIG
Conditions at: ZGHA (HUANGHUA/CHANGSH, CN) observed 0600 UTC 18 February 2019
Temperature: 2.0°C (36°F)
Dewpoint: 2.0°C (36°F) [RH = 100%]
Pressure (altimeter): 30.12 inches Hg (1020.0 mb)
Winds: from the NW (320 degrees) at 9 MPH (8 knots; 4.1 m/s)
Visibility: 1.55 miles (2.49 km)
Ceiling: 700 feet AGL
Clouds: scattered clouds at 500 feet AGL
broken clouds at 700 feet AGL
overcast cloud deck at 5000 feet AGL
Weather: -RA BR  (light rain, mist)

METAR text: ZGHA 180500Z 34003MPS 3500 BR FEW005 BKN007 OVC050 03/02 Q1020 BECMG TL0650 BKN010 OVC050
Conditions at: ZGHA (HUANGHUA/CHANGSH, CN) observed 0500 UTC 18 February 2019
Temperature: 3.0°C (37°F)
Dewpoint: 2.0°C (36°F) [RH = 93%]
Pressure (altimeter): 30.12 inches Hg (1020.0 mb)
Winds: from the NNW (340 degrees) at 7 MPH (6 knots; 3.1 m/s)
Visibility: 2.17 miles (3.49 km)
Ceiling: 700 feet AGL
Clouds: few clouds at 500 feet AGL
broken clouds at 700 feet AGL
overcast cloud deck at 5000 feet AGL
Weather: BR  (mist)

METAR text: ZGHA 180400Z 34003MPS 300V020 1600 -RA BR SCT003 BKN005 OVC040 02/02 Q1021 BECMG TL0550 3200 BR
Conditions at: ZGHA (HUANGHUA/CHANGSH, CN) observed 0400 UTC 18 February 2019
Temperature: 2.0°C (36°F)
Dewpoint: 2.0°C (36°F) [RH = 100%]
Pressure (altimeter): 30.15 inches Hg (1021.0 mb)
Winds: from the NNW (340 degrees) at 7 MPH (6 knots; 3.1 m/s)
Visibility: 0.99 miles (1.59 km)
Ceiling: 500 feet AGL
Clouds: scattered clouds at 300 feet AGL
broken clouds at 500 feet AGL
overcast cloud deck at 4000 feet AGL
Weather: -RA BR  (light rain, mist)

METAR text: ZGHA 180300Z 33004MPS 2500 -RA BR SCT003 BKN006 OVC040 02/02 Q1022 BECMG TL0400 3200 BR
Conditions at: ZGHA (HUANGHUA/CHANGSH, CN) observed 0300 UTC 18 February 2019
Temperature: 2.0°C (36°F)
Dewpoint: 2.0°C (36°F) [RH = 100%]
Pressure (altimeter): 30.18 inches Hg (1022.0 mb)
Winds: from the NNW (330 degrees) at 9 MPH (8 knots; 4.1 m/s)
Visibility: 1.55 miles (2.49 km)
Ceiling: 600 feet AGL
Clouds: scattered clouds at 300 feet AGL
broken clouds at 600 feet AGL
overcast cloud deck at 4000 feet AGL
Weather: -RA BR  (light rain, mist)

METAR text: ZGHA 180200Z 31004MPS 1500 -RA BR SCT003 BKN004 OVC040 02/02 Q1023 BECMG TL0350 3200 BR SCT004 BKN006 OVC050
Conditions at: ZGHA (HUANGHUA/CHANGSH, CN) observed 0200 UTC 18 February 2019
Temperature: 2.0°C (36°F)
Dewpoint: 2.0°C (36°F) [RH = 100%]
Pressure (altimeter): 30.21 inches Hg (1023.0 mb)
Winds: from the NW (310 degrees) at 9 MPH (8 knots; 4.1 m/s)
Visibility: 0.93 miles (1.50 km)
Ceiling: 400 feet AGL
Clouds: scattered clouds at 300 feet AGL
broken clouds at 400 feet AGL
overcast cloud deck at 4000 feet AGL
Weather: -RA BR  (light rain, mist)

METAR text: ZGHA 180100Z 34004MPS 1800 -RA BR SCT003 BKN004 OVC040 02/02 Q1021 BECMG TL0250 3200 BR SCT004 BKN006 OVC050
Conditions at: ZGHA (HUANGHUA/CHANGSH, CN) observed 0100 UTC 18 February 2019
Temperature: 2.0°C (36°F)
Dewpoint: 2.0°C (36°F) [RH = 100%]
Pressure (altimeter): 30.15 inches Hg (1021.0 mb)
Winds: from the NNW (340 degrees) at 9 MPH (8 knots; 4.1 m/s)
Visibility: 1.12 miles (1.80 km)
Ceiling: 400 feet AGL
Clouds: scattered clouds at 300 feet AGL
broken clouds at 400 feet AGL
overcast cloud deck at 4000 feet AGL
Weather: -RA BR  (light rain, mist)

METAR text: ZGHA 180000Z 31004MPS 1500 -RA BR SCT003 BKN004 OVC050 02/02 Q1021 NOSIG
Conditions at: ZGHA (HUANGHUA/CHANGSH, CN) observed 0000 UTC 18 February 2019
Temperature: 2.0°C (36°F)
Dewpoint: 2.0°C (36°F) [RH = 100%]
Pressure (altimeter): 30.15 inches Hg (1021.0 mb)
Winds: from the NW (310 degrees) at 9 MPH (8 knots; 4.1 m/s)
Visibility: 0.93 miles (1.50 km)
Ceiling: 400 feet AGL
Clouds: scattered clouds at 300 feet AGL
broken clouds at 400 feet AGL
overcast cloud deck at 5000 feet AGL
Weather: -RA BR  (light rain, mist)

METAR text: ZGHA 172300Z 31005MPS 2000 -RA BR SCT003 BKN004 OVC050 02/02 Q1020 BECMG TL0050 3500 BKN005 OVC050
Conditions at: ZGHA (HUANGHUA/CHANGSH, CN) observed 2300 UTC 17 February 2019
Temperature: 2.0°C (36°F)
Dewpoint: 2.0°C (36°F) [RH = 100%]
Pressure (altimeter): 30.12 inches Hg (1020.0 mb)
Winds: from the NW (310 degrees) at 12 MPH (10 knots; 5.1 m/s)
Visibility: 1.24 miles (2.00 km)
Ceiling: 400 feet AGL
Clouds: scattered clouds at 300 feet AGL
broken clouds at 400 feet AGL
overcast cloud deck at 5000 feet AGL
Weather: -RA BR  (light rain, mist)

METAR text: ZGHA 172200Z 31003MPS 3200 -RA BR BKN004 OVC050 02/02 Q1020 BECMG TL2340 BKN005 OVC050
Conditions at: ZGHA (HUANGHUA/CHANGSH, CN) observed 2200 UTC 17 February 2019
Temperature: 2.0°C (36°F)
Dewpoint: 2.0°C (36°F) [RH = 100%]
Pressure (altimeter): 30.12 inches Hg (1020.0 mb)
Winds: from the NW (310 degrees) at 7 MPH (6 knots; 3.1 m/s)
Visibility: 1.99 miles (3.20 km)
Ceiling: 400 feet AGL
Clouds: broken clouds at 400 feet AGL
overcast cloud deck at 5000 feet AGL
Weather: -RA BR  (light rain, mist)

METAR text: ZGHA 172100Z 31003MPS 3000 -RA BR BKN004 OVC050 02/02 Q1020 RESHRA NOSIG
Conditions at: ZGHA (HUANGHUA/CHANGSH, CN) observed 2100 UTC 17 February 2019
Temperature: 2.0°C (36°F)
Dewpoint: 2.0°C (36°F) [RH = 100%]
Pressure (altimeter): 30.12 inches Hg (1020.0 mb)
Winds: from the NW (310 degrees) at 7 MPH (6 knots; 3.1 m/s)
Visibility: 1.86 miles (2.99 km)
Ceiling: 400 feet AGL
Clouds: broken clouds at 400 feet AGL
overcast cloud deck at 5000 feet AGL
Weather: -RA BR  (light rain, mist)

METAR text: ZGHA 172000Z 35003MPS 310V010 3200 SHRA BR BKN004 OVC050 02/02 Q1020 NOSIG
Conditions at: ZGHA (HUANGHUA/CHANGSH, CN) observed 2000 UTC 17 February 2019
Temperature: 2.0°C (36°F)
Dewpoint: 2.0°C (36°F) [RH = 100%]
Pressure (altimeter): 30.12 inches Hg (1020.0 mb)
Winds: from the N (350 degrees) at 7 MPH (6 knots; 3.1 m/s)
Visibility: 1.99 miles (3.20 km)
Ceiling: 400 feet AGL
Clouds: broken clouds at 400 feet AGL
overcast cloud deck at 5000 feet AGL
Weather: SHRA BR  (rain showers, mist)

METAR text: ZGHA 171900Z 31004MPS 3500 -SHRA BR BKN004 OVC050 03/03 Q1021 RESHRA BECMG TL2040 SHRA
Conditions at: ZGHA (HUANGHUA/CHANGSH, CN) observed 1900 UTC 17 February 2019
Temperature: 3.0°C (37°F)
Dewpoint: 3.0°C (37°F) [RH = 100%]
Pressure (altimeter): 30.15 inches Hg (1021.0 mb)
Winds: from the NW (310 degrees) at 9 MPH (8 knots; 4.1 m/s)
Visibility: 2.17 miles (3.49 km)
Ceiling: 400 feet AGL
Clouds: broken clouds at 400 feet AGL
overcast cloud deck at 5000 feet AGL
Weather: -SHRA BR  (light rain showers, mist)

METAR text: ZGHA 171800Z 31003MPS 3000 SHRA BR BKN004 OVC050 03/03 Q1021 NOSIG
Conditions at: ZGHA (HUANGHUA/CHANGSH, CN) observed 1800 UTC 17 February 2019
Temperature: 3.0°C (37°F)
Dewpoint: 3.0°C (37°F) [RH = 100%]
Pressure (altimeter): 30.15 inches Hg (1021.0 mb)
Winds: from the NW (310 degrees) at 7 MPH (6 knots; 3.1 m/s)
Visibility: 1.86 miles (2.99 km)
Ceiling: 400 feet AGL
Clouds: broken clouds at 400 feet AGL
overcast cloud deck at 5000 feet AGL
Weather: SHRA BR  (rain showers, mist)

METAR text: ZGHA 171700Z 07003MPS 2800 -RA BR SCT004 BKN012 OVC050 03/02 Q1021 NOSIG
Conditions at: ZGHA (HUANGHUA/CHANGSH, CN) observed 1700 UTC 17 February 2019
Temperature: 3.0°C (37°F)
Dewpoint: 2.0°C (36°F) [RH = 93%]
Pressure (altimeter): 30.15 inches Hg (1021.0 mb)
Winds: from the ENE (70 degrees) at 7 MPH (6 knots; 3.1 m/s)
Visibility: 1.74 miles (2.80 km)
Ceiling: 1200 feet AGL
Clouds: scattered clouds at 400 feet AGL
broken clouds at 1200 feet AGL
overcast cloud deck at 5000 feet AGL
Weather: -RA BR  (light rain, mist)

METAR text: ZGHA 171600Z 36003MPS 3500 -RA BR BKN004 OVC050 03/02 Q1024 BECMG TL1700 2800
Conditions at: ZGHA (HUANGHUA/CHANGSH, CN) observed 1600 UTC 17 February 2019
Temperature: 3.0°C (37°F)
Dewpoint: 2.0°C (36°F) [RH = 93%]
Pressure (altimeter): 30.24 inches Hg (1024.0 mb)
Winds: from the N (360 degrees) at 7 MPH (6 knots; 3.1 m/s)
Visibility: 2.17 miles (3.49 km)
Ceiling: 400 feet AGL
Clouds: broken clouds at 400 feet AGL
overcast cloud deck at 5000 feet AGL
Weather: -RA BR  (light rain, mist)

METAR text: ZGHA 171500Z 32005MPS 3500 -RA BR BKN005 OVC050 02/02 Q1024 BECMG TL1600 BKN004 OVC050
Conditions at: ZGHA (HUANGHUA/CHANGSH, CN) observed 1500 UTC 17 February 2019
Temperature: 2.0°C (36°F)
Dewpoint: 2.0°C (36°F) [RH = 100%]
Pressure (altimeter): 30.24 inches Hg (1024.0 mb)
Winds: from the NW (320 degrees) at 12 MPH (10 knots; 5.1 m/s)
Visibility: 2.17 miles (3.49 km)
Ceiling: 500 feet AGL
Clouds: broken clouds at 500 feet AGL
overcast cloud deck at 5000 feet AGL
Weather: -RA BR  (light rain, mist)

METAR text: ZGHA 171400Z 31004MPS 4000 -RA BR SCT004 BKN007 OVC050 03/03 Q1023 NOSIG
Conditions at: ZGHA (HUANGHUA/CHANGSH, CN) observed 1400 UTC 17 February 2019
Temperature: 3.0°C (37°F)
Dewpoint: 3.0°C (37°F) [RH = 100%]
Pressure (altimeter): 30.21 inches Hg (1023.0 mb)
Winds: from the NW (310 degrees) at 9 MPH (8 knots; 4.1 m/s)
Visibility: 2.49 miles (4.01 km)
Ceiling: 700 feet AGL
Clouds: scattered clouds at 400 feet AGL
broken clouds at 700 feet AGL
overcast cloud deck at 5000 feet AGL
Weather: -RA BR  (light rain, mist)

METAR text: ZGHA 171300Z 02002MPS 4000 -RA BR SCT004 BKN007 OVC050 03/03 Q1023 NOSIG
Conditions at: ZGHA (HUANGHUA/CHANGSH, CN) observed 1300 UTC 17 February 2019
Temperature: 3.0°C (37°F)
Dewpoint: 3.0°C (37°F) [RH = 100%]
Pressure (altimeter): 30.21 inches Hg (1023.0 mb)
Winds: from the NNE (20 degrees) at 5 MPH (4 knots; 2.1 m/s)
Visibility: 2.49 miles (4.01 km)
Ceiling: 700 feet AGL
Clouds: scattered clouds at 400 feet AGL
broken clouds at 700 feet AGL
overcast cloud deck at 5000 feet AGL
Weather: -RA BR  (light rain, mist)

METAR text: ZGHA 171200Z 01002MPS 2800 -RA BR SCT004 BKN007 OVC050 03/03 Q1024 BECMG TL1300 3500
Conditions at: ZGHA (HUANGHUA/CHANGSH, CN) observed 1200 UTC 17 February 2019
Temperature: 3.0°C (37°F)
Dewpoint: 3.0°C (37°F) [RH = 100%]
Pressure (altimeter): 30.24 inches Hg (1024.0 mb)
Winds: from the N (10 degrees) at 5 MPH (4 knots; 2.1 m/s)
Visibility: 1.74 miles (2.80 km)
Ceiling: 700 feet AGL
Clouds: scattered clouds at 400 feet AGL
broken clouds at 700 feet AGL
overcast cloud deck at 5000 feet AGL
Weather: -RA BR  (light rain, mist)

METAR text: ZGHA 171100Z 33003MPS 3000 -RA BR SCT004 BKN007 OVC050 03/03 Q1024 BECMG TL1200 2700
Conditions at: ZGHA (HUANGHUA/CHANGSH, CN) observed 1100 UTC 17 February 2019
Temperature: 3.0°C (37°F)
Dewpoint: 3.0°C (37°F) [RH = 100%]
Pressure (altimeter): 30.24 inches Hg (1024.0 mb)
Winds: from the NNW (330 degrees) at 7 MPH (6 knots; 3.1 m/s)
Visibility: 1.86 miles (2.99 km)
Ceiling: 700 feet AGL
Clouds: scattered clouds at 400 feet AGL
broken clouds at 700 feet AGL
overcast cloud deck at 5000 feet AGL
Weather: -RA BR  (light rain, mist)

METAR text: ZGHA 171000Z 34004MPS 2000 -RA BR SCT004 BKN008 OVC050 03/03 Q1025 BECMG TL1100 3100 SCT006 BKN011 OVC050
Conditions at: ZGHA (HUANGHUA/CHANGSH, CN) observed 1000 UTC 17 February 2019
Temperature: 3.0°C (37°F)
Dewpoint: 3.0°C (37°F) [RH = 100%]
Pressure (altimeter): 30.27 inches Hg (1025.0 mb)
Winds: from the NNW (340 degrees) at 9 MPH (8 knots; 4.1 m/s)
Visibility: 1.24 miles (2.00 km)
Ceiling: 800 feet AGL
Clouds: scattered clouds at 400 feet AGL
broken clouds at 800 feet AGL
overcast cloud deck at 5000 feet AGL
Weather: -RA BR  (light rain, mist)

METAR text: ZGHA 170900Z 34004MPS 1800 -RA BR SCT004 BKN006 OVC050 04/03 Q1024 NOSIG
Conditions at: ZGHA (HUANGHUA/CHANGSH, CN) observed 0900 UTC 17 February 2019
Temperature: 4.0°C (39°F)
Dewpoint: 3.0°C (37°F) [RH = 93%]
Pressure (altimeter): 30.24 inches Hg (1024.0 mb)
Winds: from the NNW (340 degrees) at 9 MPH (8 knots; 4.1 m/s)
Visibility: 1.12 miles (1.80 km)
Ceiling: 600 feet AGL
Clouds: scattered clouds at 400 feet AGL
broken clouds at 600 feet AGL
overcast cloud deck at 5000 feet AGL
Weather: -RA BR  (light rain, mist)

METAR text: ZGHA 170800Z 34004MPS 1800 -RA BR SCT004 BKN007 OVC050 04/03 Q1024 BECMG TL0950 3000
Conditions at: ZGHA (HUANGHUA/CHANGSH, CN) observed 0800 UTC 17 February 2019
Temperature: 4.0°C (39°F)
Dewpoint: 3.0°C (37°F) [RH = 93%]
Pressure (altimeter): 30.24 inches Hg (1024.0 mb)
Winds: from the NNW (340 degrees) at 9 MPH (8 knots; 4.1 m/s)
Visibility: 1.12 miles (1.80 km)
Ceiling: 700 feet AGL
Clouds: scattered clouds at 400 feet AGL
broken clouds at 700 feet AGL
overcast cloud deck at 5000 feet AGL
Weather: -RA BR  (light rain, mist)

METAR text: ZGHA 170700Z 31004MPS 1500 -RA BR SCT004 BKN006 OVC050 04/03 Q1024 BECMG TL0730 1400
Conditions at: ZGHA (HUANGHUA/CHANGSH, CN) observed 0700 UTC 17 February 2019
Temperature: 4.0°C (39°F)
Dewpoint: 3.0°C (37°F) [RH = 93%]
Pressure (altimeter): 30.24 inches Hg (1024.0 mb)
Winds: from the NW (310 degrees) at 9 MPH (8 knots; 4.1 m/s)
Visibility: 0.93 miles (1.50 km)
Ceiling: 600 feet AGL
Clouds: scattered clouds at 400 feet AGL
broken clouds at 600 feet AGL
overcast cloud deck at 5000 feet AGL
Weather: -RA BR  (light rain, mist)

METAR text: ZGHA 170600Z 31004MPS 1600 -RA BR SCT004 BKN007 OVC050 04/04 Q1025 NOSIG
Conditions at: ZGHA (HUANGHUA/CHANGSH, CN) observed 0600 UTC 17 February 2019
Temperature: 4.0°C (39°F)
Dewpoint: 4.0°C (39°F) [RH = 100%]
Pressure (altimeter): 30.27 inches Hg (1025.0 mb)
Winds: from the NW (310 degrees) at 9 MPH (8 knots; 4.1 m/s)
Visibility: 0.99 miles (1.59 km)
Ceiling: 700 feet AGL
Clouds: scattered clouds at 400 feet AGL
broken clouds at 700 feet AGL
overcast cloud deck at 5000 feet AGL
Weather: -RA BR  (light rain, mist)

METAR text: ZGHA 170500Z 33004MPS 1600 -RA BR SCT004 BKN007 OVC050 04/04 Q1026 BECMG TL0650 3000
Conditions at: ZGHA (HUANGHUA/CHANGSH, CN) observed 0500 UTC 17 February 2019
Temperature: 4.0°C (39°F)
Dewpoint: 4.0°C (39°F) [RH = 100%]
Pressure (altimeter): 30.30 inches Hg (1026.0 mb)
Winds: from the NNW (330 degrees) at 9 MPH (8 knots; 4.1 m/s)
Visibility: 0.99 miles (1.59 km)
Ceiling: 700 feet AGL
Clouds: scattered clouds at 400 feet AGL
broken clouds at 700 feet AGL
overcast cloud deck at 5000 feet AGL
Weather: -RA BR  (light rain, mist)

METAR text: ZGHA 170400Z 34003MPS 3500 -RA BR SCT006 BKN009 OVC050 04/04 Q1027 BECMG TL0500 SCT007 BKN010 OVC050
Conditions at: ZGHA (HUANGHUA/CHANGSH, CN) observed 0400 UTC 17 February 2019
Temperature: 4.0°C (39°F)
Dewpoint: 4.0°C (39°F) [RH = 100%]
Pressure (altimeter): 30.32 inches Hg (1027.0 mb)
Winds: from the NNW (340 degrees) at 7 MPH (6 knots; 3.1 m/s)
Visibility: 2.17 miles (3.49 km)
Ceiling: 900 feet AGL
Clouds: scattered clouds at 600 feet AGL
broken clouds at 900 feet AGL
overcast cloud deck at 5000 feet AGL
Weather: -RA BR  (light rain, mist)

METAR text: ZGHA 170300Z 33004MPS 2800 -RA BR SCT004 BKN007 OVC050 04/03 Q1028 BECMG TL0400 3200
Conditions at: ZGHA (HUANGHUA/CHANGSH, CN) observed 0300 UTC 17 February 2019
Temperature: 4.0°C (39°F)
Dewpoint: 3.0°C (37°F) [RH = 93%]
Pressure (altimeter): 30.35 inches Hg (1028.0 mb)
Winds: from the NNW (330 degrees) at 9 MPH (8 knots; 4.1 m/s)
Visibility: 1.74 miles (2.80 km)
Ceiling: 700 feet AGL
Clouds: scattered clouds at 400 feet AGL
broken clouds at 700 feet AGL
overcast cloud deck at 5000 feet AGL
Weather: -RA BR  (light rain, mist)

METAR text: ZGHA 170200Z 33004MPS 2200 -RA BR SCT004 BKN007 OVC050 04/03 Q1027 NOSIG
Conditions at: ZGHA (HUANGHUA/CHANGSH, CN) observed 0200 UTC 17 February 2019
Temperature: 4.0°C (39°F)
Dewpoint: 3.0°C (37°F) [RH = 93%]
Pressure (altimeter): 30.32 inches Hg (1027.0 mb)
Winds: from the NNW (330 degrees) at 9 MPH (8 knots; 4.1 m/s)
Visibility: 1.37 miles (2.20 km)
Ceiling: 700 feet AGL
Clouds: scattered clouds at 400 feet AGL
broken clouds at 700 feet AGL
overcast cloud deck at 5000 feet AGL
Weather: -RA BR  (light rain, mist)

METAR text: ZGHA 170100Z 35004MPS 1600 -RA BR SCT004 BKN007 OVC050 04/03 Q1027 NOSIG
Conditions at: ZGHA (HUANGHUA/CHANGSH, CN) observed 0100 UTC 17 February 2019
Temperature: 4.0°C (39°F)
Dewpoint: 3.0°C (37°F) [RH = 93%]
Pressure (altimeter): 30.32 inches Hg (1027.0 mb)
Winds: from the N (350 degrees) at 9 MPH (8 knots; 4.1 m/s)
Visibility: 0.99 miles (1.59 km)
Ceiling: 700 feet AGL
Clouds: scattered clouds at 400 feet AGL
broken clouds at 700 feet AGL
overcast cloud deck at 5000 feet AGL
Weather: -RA BR  (light rain, mist)

METAR text: ZGHA 170000Z 34004MPS 1800 -RA BR SCT004 BKN007 OVC050 04/03 Q1027 BECMG TL0120 3200
Conditions at: ZGHA (HUANGHUA/CHANGSH, CN) observed 0000 UTC 17 February 2019
Temperature: 4.0°C (39°F)
Dewpoint: 3.0°C (37°F) [RH = 93%]
Pressure (altimeter): 30.32 inches Hg (1027.0 mb)
Winds: from the NNW (340 degrees) at 9 MPH (8 knots; 4.1 m/s)
Visibility: 1.12 miles (1.80 km)
Ceiling: 700 feet AGL
Clouds: scattered clouds at 400 feet AGL
broken clouds at 700 feet AGL
overcast cloud deck at 5000 feet AGL
Weather: -RA BR  (light rain, mist)

METAR text: ZGHA 162300Z 35004MPS 3000 -RA BR SCT004 BKN007 OVC050 03/03 Q1026 BECMG TL2350 2500 RA BR BKN004 OVC040
Conditions at: ZGHA (HUANGHUA/CHANGSH, CN) observed 2300 UTC 16 February 2019
Temperature: 3.0°C (37°F)
Dewpoint: 3.0°C (37°F) [RH = 100%]
Pressure (altimeter): 30.30 inches Hg (1026.0 mb)
Winds: from the N (350 degrees) at 9 MPH (8 knots; 4.1 m/s)
Visibility: 1.86 miles (2.99 km)
Ceiling: 700 feet AGL
Clouds: scattered clouds at 400 feet AGL
broken clouds at 700 feet AGL
overcast cloud deck at 5000 feet AGL
Weather: -RA BR  (light rain, mist)

METAR text: ZGHA 162200Z 34003MPS 3500 -RA BR BKN007 OVC050 04/03 Q1025 BECMG TL2350 2800
Conditions at: ZGHA (HUANGHUA/CHANGSH, CN) observed 2200 UTC 16 February 2019
Temperature: 4.0°C (39°F)
Dewpoint: 3.0°C (37°F) [RH = 93%]
Pressure (altimeter): 30.27 inches Hg (1025.0 mb)
Winds: from the NNW (340 degrees) at 7 MPH (6 knots; 3.1 m/s)
Visibility: 2.17 miles (3.49 km)
Ceiling: 700 feet AGL
Clouds: broken clouds at 700 feet AGL
overcast cloud deck at 5000 feet AGL
Weather: -RA BR  (light rain, mist)

METAR text: ZGHA 162100Z 34004MPS 4000 -RA BR SCT004 BKN008 OVC050 04/03 Q1025 NOSIG
Conditions at: ZGHA (HUANGHUA/CHANGSH, CN) observed 2100 UTC 16 February 2019
Temperature: 4.0°C (39°F)
Dewpoint: 3.0°C (37°F) [RH = 93%]
Pressure (altimeter): 30.27 inches Hg (1025.0 mb)
Winds: from the NNW (340 degrees) at 9 MPH (8 knots; 4.1 m/s)
Visibility: 2.49 miles (4.01 km)
Ceiling: 800 feet AGL
Clouds: scattered clouds at 400 feet AGL
broken clouds at 800 feet AGL
overcast cloud deck at 5000 feet AGL
Weather: -RA BR  (light rain, mist)

Forecast for: ZGHA (HUANGHUA/CHANGSH, CN)
Text: TAF ZGHA 180235Z 1806/1906 33004MPS 4000 -RA BR SCT004 BKN007 OVC050 TX06/1806Z TN01/1823Z
Forecast period: 0600 to 2200 UTC 18 February 2019
Forecast type: FROM: standard forecast or significant change
Winds: from the NNW (330 degrees) at 9 MPH (8 knots; 4.1 m/s)
Visibility: 2.49 miles (4.01 km)
Ceiling: 700 feet AGL
Clouds: scattered clouds at 400 feet AGL
broken clouds at 700 feet AGL
overcast cloud deck at 5000 feet AGL
Weather: -RA BR  (light rain, mist)
Text: BECMG 1822/1823 2000
Forecast period: 2200 UTC 18 February 2019 to 0100 UTC 19 February 2019
Forecast type: BECOMING: Conditions expected to become as follows by 2300 UTC 18 February 2019
Winds: from the NNW (330 degrees) at 9 MPH (8 knots; 4.1 m/s)
Visibility: 1.24 miles (2.00 km)
Ceiling: 700 feet AGL
Clouds: scattered clouds at 400 feet AGL
broken clouds at 700 feet AGL
overcast cloud deck at 5000 feet AGL
Weather: -RA BR  (light rain, mist)
Text: BECMG 1901/1902 4000
Forecast period: 0100 to 0600 UTC 19 February 2019
Forecast type: BECOMING: Conditions expected to become as follows by 0200 UTC 19 February 2019
Winds: from the NNW (330 degrees) at 9 MPH (8 knots; 4.1 m/s)
Visibility: 2.49 miles (4.01 km)
Ceiling: 700 feet AGL
Clouds: scattered clouds at 400 feet AGL
broken clouds at 700 feet AGL
overcast cloud deck at 5000 feet AGL
Weather: -RA BR  (light rain, mist)